sensor_id;sensor_type;location;lat;lon;timestamp;P1;durP1;ratioP1;P2;durP2;ratioP2
84999;SDS011;75320;51.608;7.952;2024-01-30T00:04:44;11.67;;;7.67;;
84999;SDS011;75320;51.608;7.952;2024-01-30T00:07:10;13.07;;;7.73;;
84999;SDS011;75320;51.608;7.952;2024-01-30T00:09:36;14.00;;;7.25;;
84999;SDS011;75320;51.608;7.952;2024-01-30T00:12:05;11.18;;;7.53;;
84999;SDS011;75320;51.608;7.952;2024-01-30T00:14:31;11.10;;;7.55;;
84999;SDS011;75320;51.608;7.952;2024-01-30T00:16:56;13.23;;;7.93;;
84999;SDS011;75320;51.608;7.952;2024-01-30T00:19:22;11.90;;;7.67;;
84999;SDS011;75320;51.608;7.952;2024-01-30T00:21:47;14.98;;;7.90;;
84999;SDS011;75320;51.608;7.952;2024-01-30T00:24:12;12.73;;;7.63;;
84999;SDS011;75320;51.608;7.952;2024-01-30T00:26:38;13.60;;;7.60;;
84999;SDS011;75320;51.608;7.952;2024-01-30T00:29:03;12.07;;;7.53;;
84999;SDS011;75320;51.608;7.952;2024-01-30T00:31:28;13.38;;;8.35;;
84999;SDS011;75320;51.608;7.952;2024-01-30T00:33:54;13.48;;;8.93;;
84999;SDS011;75320;51.608;7.952;2024-01-30T00:36:19;15.50;;;8.33;;
84999;SDS011;75320;51.608;7.952;2024-01-30T00:38:46;13.37;;;7.90;;
84999;SDS011;75320;51.608;7.952;2024-01-30T00:41:11;11.88;;;8.00;;
84999;SDS011;75320;51.608;7.952;2024-01-30T00:43:36;15.18;;;9.32;;
84999;SDS011;75320;51.608;7.952;2024-01-30T00:46:02;15.38;;;8.05;;
84999;SDS011;75320;51.608;7.952;2024-01-30T00:48:29;14.52;;;8.60;;
84999;SDS011;75320;51.608;7.952;2024-01-30T00:50:55;15.60;;;8.07;;
84999;SDS011;75320;51.608;7.952;2024-01-30T00:53:22;16.75;;;8.23;;
84999;SDS011;75320;51.608;7.952;2024-01-30T00:55:49;13.50;;;8.40;;
84999;SDS011;75320;51.608;7.952;2024-01-30T00:58:14;12.40;;;7.95;;
84999;SDS011;75320;51.608;7.952;2024-01-30T01:00:40;13.00;;;8.25;;
84999;SDS011;75320;51.608;7.952;2024-01-30T01:03:06;12.65;;;8.95;;
84999;SDS011;75320;51.608;7.952;2024-01-30T01:05:32;12.95;;;7.95;;
84999;SDS011;75320;51.608;7.952;2024-01-30T01:07:58;15.32;;;9.00;;
84999;SDS011;75320;51.608;7.952;2024-01-30T01:10:24;13.13;;;8.00;;
84999;SDS011;75320;51.608;7.952;2024-01-30T01:12:49;17.50;;;8.90;;
84999;SDS011;75320;51.608;7.952;2024-01-30T01:15:14;13.15;;;8.70;;
84999;SDS011;75320;51.608;7.952;2024-01-30T01:17:41;15.15;;;8.45;;
84999;SDS011;75320;51.608;7.952;2024-01-30T01:20:07;15.50;;;8.50;;
84999;SDS011;75320;51.608;7.952;2024-01-30T01:22:33;15.00;;;8.40;;
84999;SDS011;75320;51.608;7.952;2024-01-30T01:24:59;13.52;;;8.63;;
84999;SDS011;75320;51.608;7.952;2024-01-30T01:27:25;18.67;;;11.73;;
84999;SDS011;75320;51.608;7.952;2024-01-30T01:29:51;11.93;;;8.10;;
84999;SDS011;75320;51.608;7.952;2024-01-30T01:32:17;13.13;;;8.45;;
84999;SDS011;75320;51.608;7.952;2024-01-30T01:34:42;14.93;;;8.50;;
84999;SDS011;75320;51.608;7.952;2024-01-30T01:37:08;15.40;;;8.63;;
84999;SDS011;75320;51.608;7.952;2024-01-30T01:39:33;14.23;;;8.80;;
84999;SDS011;75320;51.608;7.952;2024-01-30T01:41:58;12.45;;;9.02;;
84999;SDS011;75320;51.608;7.952;2024-01-30T01:44:24;18.40;;;8.98;;
84999;SDS011;75320;51.608;7.952;2024-01-30T01:46:52;14.13;;;8.65;;
84999;SDS011;75320;51.608;7.952;2024-01-30T01:49:29;15.02;;;8.77;;
84999;SDS011;75320;51.608;7.952;2024-01-30T01:51:55;15.10;;;8.90;;
84999;SDS011;75320;51.608;7.952;2024-01-30T01:54:23;13.32;;;8.18;;
84999;SDS011;75320;51.608;7.952;2024-01-30T01:56:50;14.60;;;8.43;;
84999;SDS011;75320;51.608;7.952;2024-01-30T01:59:18;13.05;;;8.07;;
84999;SDS011;75320;51.608;7.952;2024-01-30T02:01:44;12.15;;;8.23;;
84999;SDS011;75320;51.608;7.952;2024-01-30T02:04:14;13.90;;;9.10;;
84999;SDS011;75320;51.608;7.952;2024-01-30T02:06:39;16.35;;;10.35;;
84999;SDS011;75320;51.608;7.952;2024-01-30T02:09:04;13.25;;;7.78;;
84999;SDS011;75320;51.608;7.952;2024-01-30T02:11:30;12.30;;;8.27;;
84999;SDS011;75320;51.608;7.952;2024-01-30T02:13:55;15.55;;;8.88;;
84999;SDS011;75320;51.608;7.952;2024-01-30T02:16:21;13.93;;;8.70;;
84999;SDS011;75320;51.608;7.952;2024-01-30T02:18:48;14.27;;;8.70;;
84999;SDS011;75320;51.608;7.952;2024-01-30T02:21:16;15.80;;;10.13;;
84999;SDS011;75320;51.608;7.952;2024-01-30T02:23:43;14.18;;;9.38;;
84999;SDS011;75320;51.608;7.952;2024-01-30T02:26:11;16.00;;;9.25;;
84999;SDS011;75320;51.608;7.952;2024-01-30T02:28:38;13.95;;;8.80;;
84999;SDS011;75320;51.608;7.952;2024-01-30T02:31:03;14.45;;;8.93;;
84999;SDS011;75320;51.608;7.952;2024-01-30T02:33:29;12.45;;;8.07;;
84999;SDS011;75320;51.608;7.952;2024-01-30T02:35:55;14.52;;;8.63;;
84999;SDS011;75320;51.608;7.952;2024-01-30T02:38:20;11.80;;;8.13;;
84999;SDS011;75320;51.608;7.952;2024-01-30T02:40:45;14.63;;;8.50;;
84999;SDS011;75320;51.608;7.952;2024-01-30T02:43:11;15.68;;;9.25;;
84999;SDS011;75320;51.608;7.952;2024-01-30T02:45:37;14.50;;;9.05;;
84999;SDS011;75320;51.608;7.952;2024-01-30T02:48:02;13.10;;;10.17;;
84999;SDS011;75320;51.608;7.952;2024-01-30T02:50:28;14.98;;;8.77;;
84999;SDS011;75320;51.608;7.952;2024-01-30T02:52:53;12.97;;;8.70;;
84999;SDS011;75320;51.608;7.952;2024-01-30T02:55:19;17.30;;;9.20;;
84999;SDS011;75320;51.608;7.952;2024-01-30T02:57:44;14.45;;;10.25;;
84999;SDS011;75320;51.608;7.952;2024-01-30T03:00:10;17.27;;;8.80;;
84999;SDS011;75320;51.608;7.952;2024-01-30T03:02:36;20.25;;;8.95;;
84999;SDS011;75320;51.608;7.952;2024-01-30T03:05:02;13.77;;;8.15;;
84999;SDS011;75320;51.608;7.952;2024-01-30T03:07:28;16.10;;;8.93;;
84999;SDS011;75320;51.608;7.952;2024-01-30T03:09:54;13.27;;;8.18;;
84999;SDS011;75320;51.608;7.952;2024-01-30T03:12:21;15.23;;;8.60;;
84999;SDS011;75320;51.608;7.952;2024-01-30T03:14:46;12.70;;;8.63;;
84999;SDS011;75320;51.608;7.952;2024-01-30T03:17:12;12.32;;;8.23;;
84999;SDS011;75320;51.608;7.952;2024-01-30T03:19:38;13.35;;;7.45;;
84999;SDS011;75320;51.608;7.952;2024-01-30T03:22:04;14.20;;;8.80;;
84999;SDS011;75320;51.608;7.952;2024-01-30T03:24:29;14.73;;;8.50;;
84999;SDS011;75320;51.608;7.952;2024-01-30T03:26:54;14.07;;;8.20;;
84999;SDS011;75320;51.608;7.952;2024-01-30T03:29:20;13.07;;;7.47;;
84999;SDS011;75320;51.608;7.952;2024-01-30T03:31:45;16.20;;;8.85;;
84999;SDS011;75320;51.608;7.952;2024-01-30T03:34:11;14.40;;;8.33;;
84999;SDS011;75320;51.608;7.952;2024-01-30T03:36:36;13.40;;;8.25;;
84999;SDS011;75320;51.608;7.952;2024-01-30T03:39:03;13.32;;;7.93;;
84999;SDS011;75320;51.608;7.952;2024-01-30T03:41:28;12.43;;;8.40;;
84999;SDS011;75320;51.608;7.952;2024-01-30T03:43:53;14.67;;;8.23;;
84999;SDS011;75320;51.608;7.952;2024-01-30T03:46:19;11.90;;;8.00;;
84999;SDS011;75320;51.608;7.952;2024-01-30T03:48:45;17.45;;;8.35;;
84999;SDS011;75320;51.608;7.952;2024-01-30T03:51:11;13.95;;;8.70;;
84999;SDS011;75320;51.608;7.952;2024-01-30T03:53:41;13.27;;;8.18;;
84999;SDS011;75320;51.608;7.952;2024-01-30T03:56:07;13.70;;;8.55;;
84999;SDS011;75320;51.608;7.952;2024-01-30T03:58:32;15.82;;;9.18;;
84999;SDS011;75320;51.608;7.952;2024-01-30T04:00:59;13.90;;;8.82;;
84999;SDS011;75320;51.608;7.952;2024-01-30T04:03:24;14.15;;;8.38;;
84999;SDS011;75320;51.608;7.952;2024-01-30T04:05:53;11.55;;;7.18;;
84999;SDS011;75320;51.608;7.952;2024-01-30T04:08:28;14.00;;;8.48;;
84999;SDS011;75320;51.608;7.952;2024-01-30T04:10:54;13.40;;;7.88;;
84999;SDS011;75320;51.608;7.952;2024-01-30T04:13:20;12.70;;;7.70;;
84999;SDS011;75320;51.608;7.952;2024-01-30T04:15:45;12.43;;;8.17;;
84999;SDS011;75320;51.608;7.952;2024-01-30T04:18:10;13.77;;;7.30;;
84999;SDS011;75320;51.608;7.952;2024-01-30T04:20:37;13.75;;;9.43;;
84999;SDS011;75320;51.608;7.952;2024-01-30T04:23:02;10.82;;;7.07;;
84999;SDS011;75320;51.608;7.952;2024-01-30T04:25:28;11.77;;;8.25;;
84999;SDS011;75320;51.608;7.952;2024-01-30T04:27:53;12.17;;;8.73;;
84999;SDS011;75320;51.608;7.952;2024-01-30T04:30:19;13.10;;;7.60;;
84999;SDS011;75320;51.608;7.952;2024-01-30T04:32:45;13.80;;;8.23;;
84999;SDS011;75320;51.608;7.952;2024-01-30T04:35:10;14.57;;;8.00;;
84999;SDS011;75320;51.608;7.952;2024-01-30T04:37:35;15.60;;;8.55;;
84999;SDS011;75320;51.608;7.952;2024-01-30T04:40:01;12.53;;;7.83;;
84999;SDS011;75320;51.608;7.952;2024-01-30T04:44:54;10.60;;;7.03;;
84999;SDS011;75320;51.608;7.952;2024-01-30T04:47:19;15.17;;;7.77;;
84999;SDS011;75320;51.608;7.952;2024-01-30T04:49:44;12.83;;;7.63;;
84999;SDS011;75320;51.608;7.952;2024-01-30T04:52:10;11.52;;;7.18;;
84999;SDS011;75320;51.608;7.952;2024-01-30T04:54:35;12.32;;;7.75;;
84999;SDS011;75320;51.608;7.952;2024-01-30T04:57:01;16.48;;;7.35;;
84999;SDS011;75320;51.608;7.952;2024-01-30T04:59:27;12.38;;;8.05;;
84999;SDS011;75320;51.608;7.952;2024-01-30T05:01:52;12.20;;;8.20;;
84999;SDS011;75320;51.608;7.952;2024-01-30T05:04:18;14.63;;;7.85;;
84999;SDS011;75320;51.608;7.952;2024-01-30T05:06:43;13.37;;;7.93;;
84999;SDS011;75320;51.608;7.952;2024-01-30T05:09:10;15.70;;;8.20;;
84999;SDS011;75320;51.608;7.952;2024-01-30T05:11:40;10.95;;;8.25;;
84999;SDS011;75320;51.608;7.952;2024-01-30T05:14:06;12.20;;;7.93;;
84999;SDS011;75320;51.608;7.952;2024-01-30T05:16:33;13.40;;;7.57;;
84999;SDS011;75320;51.608;7.952;2024-01-30T05:19:00;11.30;;;8.40;;
84999;SDS011;75320;51.608;7.952;2024-01-30T05:21:25;12.43;;;6.50;;
84999;SDS011;75320;51.608;7.952;2024-01-30T05:23:51;16.05;;;7.97;;
84999;SDS011;75320;51.608;7.952;2024-01-30T05:26:18;14.10;;;7.78;;
84999;SDS011;75320;51.608;7.952;2024-01-30T05:28:44;11.45;;;7.22;;
84999;SDS011;75320;51.608;7.952;2024-01-30T05:31:13;13.02;;;7.95;;
84999;SDS011;75320;51.608;7.952;2024-01-30T05:33:40;11.20;;;7.00;;
84999;SDS011;75320;51.608;7.952;2024-01-30T05:36:07;12.25;;;7.28;;
84999;SDS011;75320;51.608;7.952;2024-01-30T05:38:32;13.15;;;7.32;;
84999;SDS011;75320;51.608;7.952;2024-01-30T05:40:58;13.57;;;7.10;;
84999;SDS011;75320;51.608;7.952;2024-01-30T05:43:24;14.27;;;7.47;;
84999;SDS011;75320;51.608;7.952;2024-01-30T05:45:49;13.05;;;7.43;;
84999;SDS011;75320;51.608;7.952;2024-01-30T05:48:15;11.43;;;7.85;;
84999;SDS011;75320;51.608;7.952;2024-01-30T05:50:41;10.88;;;7.63;;
84999;SDS011;75320;51.608;7.952;2024-01-30T05:53:06;11.27;;;7.43;;
84999;SDS011;75320;51.608;7.952;2024-01-30T05:55:34;12.50;;;7.07;;
84999;SDS011;75320;51.608;7.952;2024-01-30T05:58:00;11.82;;;7.30;;
84999;SDS011;75320;51.608;7.952;2024-01-30T06:00:27;11.15;;;7.32;;
84999;SDS011;75320;51.608;7.952;2024-01-30T06:02:52;12.20;;;7.82;;
84999;SDS011;75320;51.608;7.952;2024-01-30T06:05:18;11.52;;;7.13;;
84999;SDS011;75320;51.608;7.952;2024-01-30T06:07:43;15.90;;;8.80;;
84999;SDS011;75320;51.608;7.952;2024-01-30T06:10:08;12.63;;;7.77;;
84999;SDS011;75320;51.608;7.952;2024-01-30T06:12:34;11.23;;;6.88;;
84999;SDS011;75320;51.608;7.952;2024-01-30T06:15:00;11.20;;;6.82;;
84999;SDS011;75320;51.608;7.952;2024-01-30T06:17:25;12.68;;;6.95;;
84999;SDS011;75320;51.608;7.952;2024-01-30T06:19:54;9.85;;;6.32;;
84999;SDS011;75320;51.608;7.952;2024-01-30T06:22:19;13.50;;;6.50;;
84999;SDS011;75320;51.608;7.952;2024-01-30T06:24:45;10.73;;;7.00;;
84999;SDS011;75320;51.608;7.952;2024-01-30T06:29:38;11.17;;;6.50;;
84999;SDS011;75320;51.608;7.952;2024-01-30T06:32:03;12.70;;;6.63;;
84999;SDS011;75320;51.608;7.952;2024-01-30T06:34:30;12.50;;;7.20;;
84999;SDS011;75320;51.608;7.952;2024-01-30T06:36:55;12.35;;;6.70;;
84999;SDS011;75320;51.608;7.952;2024-01-30T06:39:21;12.60;;;7.20;;
84999;SDS011;75320;51.608;7.952;2024-01-30T06:41:46;12.80;;;7.13;;
84999;SDS011;75320;51.608;7.952;2024-01-30T06:44:12;11.18;;;6.80;;
84999;SDS011;75320;51.608;7.952;2024-01-30T06:46:39;10.75;;;7.25;;
84999;SDS011;75320;51.608;7.952;2024-01-30T06:49:04;13.77;;;6.47;;
84999;SDS011;75320;51.608;7.952;2024-01-30T06:51:30;12.77;;;7.57;;
84999;SDS011;75320;51.608;7.952;2024-01-30T06:53:56;12.77;;;7.20;;
84999;SDS011;75320;51.608;7.952;2024-01-30T06:56:21;13.23;;;7.07;;
84999;SDS011;75320;51.608;7.952;2024-01-30T06:58:48;13.80;;;7.18;;
84999;SDS011;75320;51.608;7.952;2024-01-30T07:01:14;13.93;;;7.25;;
84999;SDS011;75320;51.608;7.952;2024-01-30T07:03:39;11.35;;;7.55;;
84999;SDS011;75320;51.608;7.952;2024-01-30T07:06:05;12.25;;;7.90;;
84999;SDS011;75320;51.608;7.952;2024-01-30T07:08:31;12.63;;;7.50;;
84999;SDS011;75320;51.608;7.952;2024-01-30T07:10:57;14.55;;;8.23;;
84999;SDS011;75320;51.608;7.952;2024-01-30T07:13:24;12.68;;;7.03;;
84999;SDS011;75320;51.608;7.952;2024-01-30T07:15:51;13.70;;;8.38;;
84999;SDS011;75320;51.608;7.952;2024-01-30T07:18:16;11.02;;;8.40;;
84999;SDS011;75320;51.608;7.952;2024-01-30T07:20:43;13.38;;;8.05;;
84999;SDS011;75320;51.608;7.952;2024-01-30T07:23:14;11.10;;;6.53;;
84999;SDS011;75320;51.608;7.952;2024-01-30T07:25:41;11.70;;;6.80;;
84999;SDS011;75320;51.608;7.952;2024-01-30T07:28:07;10.15;;;6.85;;
84999;SDS011;75320;51.608;7.952;2024-01-30T07:30:37;11.90;;;7.57;;
84999;SDS011;75320;51.608;7.952;2024-01-30T07:33:03;15.27;;;9.45;;
84999;SDS011;75320;51.608;7.952;2024-01-30T07:35:29;13.90;;;8.50;;
84999;SDS011;75320;51.608;7.952;2024-01-30T07:37:54;11.18;;;7.93;;
84999;SDS011;75320;51.608;7.952;2024-01-30T07:40:20;13.75;;;9.43;;
84999;SDS011;75320;51.608;7.952;2024-01-30T07:42:45;18.42;;;8.77;;
84999;SDS011;75320;51.608;7.952;2024-01-30T07:45:13;15.18;;;10.45;;
84999;SDS011;75320;51.608;7.952;2024-01-30T07:47:38;25.47;;;13.97;;
84999;SDS011;75320;51.608;7.952;2024-01-30T07:50:04;15.87;;;9.17;;
84999;SDS011;75320;51.608;7.952;2024-01-30T07:52:30;14.40;;;10.80;;
84999;SDS011;75320;51.608;7.952;2024-01-30T08:01:39;10.23;;;6.35;;
84999;SDS011;75320;51.608;7.952;2024-01-30T08:04:04;11.63;;;6.13;;
84999;SDS011;75320;51.608;7.952;2024-01-30T08:06:29;13.80;;;8.52;;
84999;SDS011;75320;51.608;7.952;2024-01-30T08:08:55;19.13;;;10.30;;
84999;SDS011;75320;51.608;7.952;2024-01-30T08:11:20;12.85;;;9.25;;
84999;SDS011;75320;51.608;7.952;2024-01-30T08:13:52;10.25;;;6.47;;
84999;SDS011;75320;51.608;7.952;2024-01-30T08:16:17;10.48;;;6.55;;
84999;SDS011;75320;51.608;7.952;2024-01-30T08:18:43;12.50;;;7.20;;
84999;SDS011;75320;51.608;7.952;2024-01-30T08:21:09;12.15;;;7.20;;
84999;SDS011;75320;51.608;7.952;2024-01-30T08:23:34;10.43;;;6.35;;
84999;SDS011;75320;51.608;7.952;2024-01-30T08:26:00;10.70;;;6.40;;
84999;SDS011;75320;51.608;7.952;2024-01-30T08:28:25;11.70;;;7.88;;
84999;SDS011;75320;51.608;7.952;2024-01-30T08:30:51;10.73;;;6.53;;
84999;SDS011;75320;51.608;7.952;2024-01-30T08:33:16;13.48;;;8.20;;
84999;SDS011;75320;51.608;7.952;2024-01-30T08:35:41;14.47;;;8.50;;
84999;SDS011;75320;51.608;7.952;2024-01-30T08:38:07;16.00;;;10.77;;
84999;SDS011;75320;51.608;7.952;2024-01-30T08:40:34;12.43;;;8.30;;
84999;SDS011;75320;51.608;7.952;2024-01-30T08:42:59;9.77;;;7.20;;
84999;SDS011;75320;51.608;7.952;2024-01-30T08:45:25;10.95;;;7.03;;
84999;SDS011;75320;51.608;7.952;2024-01-30T08:47:50;9.75;;;6.28;;
84999;SDS011;75320;51.608;7.952;2024-01-30T08:50:17;10.15;;;5.95;;
84999;SDS011;75320;51.608;7.952;2024-01-30T08:52:42;9.98;;;5.53;;
84999;SDS011;75320;51.608;7.952;2024-01-30T08:55:08;11.45;;;7.07;;
84999;SDS011;75320;51.608;7.952;2024-01-30T08:57:33;10.10;;;6.63;;
84999;SDS011;75320;51.608;7.952;2024-01-30T08:59:58;12.00;;;7.63;;
84999;SDS011;75320;51.608;7.952;2024-01-30T09:02:24;10.52;;;5.85;;
84999;SDS011;75320;51.608;7.952;2024-01-30T09:04:50;11.48;;;7.72;;
84999;SDS011;75320;51.608;7.952;2024-01-30T09:07:17;9.57;;;5.97;;
84999;SDS011;75320;51.608;7.952;2024-01-30T09:09:44;11.73;;;6.88;;
84999;SDS011;75320;51.608;7.952;2024-01-30T09:12:10;10.57;;;6.30;;
84999;SDS011;75320;51.608;7.952;2024-01-30T09:14:37;12.05;;;6.63;;
84999;SDS011;75320;51.608;7.952;2024-01-30T09:17:02;13.85;;;8.20;;
84999;SDS011;75320;51.608;7.952;2024-01-30T09:19:28;12.30;;;6.68;;
84999;SDS011;75320;51.608;7.952;2024-01-30T09:21:55;9.80;;;6.05;;
84999;SDS011;75320;51.608;7.952;2024-01-30T09:24:21;9.90;;;6.43;;
84999;SDS011;75320;51.608;7.952;2024-01-30T09:26:47;8.73;;;6.10;;
84999;SDS011;75320;51.608;7.952;2024-01-30T09:29:12;9.40;;;6.27;;
84999;SDS011;75320;51.608;7.952;2024-01-30T09:31:38;9.65;;;5.40;;
84999;SDS011;75320;51.608;7.952;2024-01-30T09:34:04;9.38;;;7.20;;
84999;SDS011;75320;51.608;7.952;2024-01-30T09:36:29;12.23;;;6.97;;
84999;SDS011;75320;51.608;7.952;2024-01-30T09:38:55;10.02;;;7.05;;
84999;SDS011;75320;51.608;7.952;2024-01-30T09:41:21;10.73;;;6.87;;
84999;SDS011;75320;51.608;7.952;2024-01-30T09:43:50;9.55;;;5.82;;
84999;SDS011;75320;51.608;7.952;2024-01-30T09:48:42;11.23;;;5.32;;
84999;SDS011;75320;51.608;7.952;2024-01-30T09:51:11;9.23;;;5.95;;
84999;SDS011;75320;51.608;7.952;2024-01-30T09:53:39;9.82;;;6.55;;
84999;SDS011;75320;51.608;7.952;2024-01-30T09:56:07;9.02;;;5.80;;
84999;SDS011;75320;51.608;7.952;2024-01-30T09:58:32;10.02;;;5.75;;
84999;SDS011;75320;51.608;7.952;2024-01-30T10:00:58;9.65;;;5.78;;
84999;SDS011;75320;51.608;7.952;2024-01-30T10:03:23;8.55;;;4.75;;
84999;SDS011;75320;51.608;7.952;2024-01-30T10:05:55;9.48;;;6.68;;
84999;SDS011;75320;51.608;7.952;2024-01-30T10:08:21;9.60;;;5.80;;
84999;SDS011;75320;51.608;7.952;2024-01-30T10:10:46;13.35;;;6.72;;
84999;SDS011;75320;51.608;7.952;2024-01-30T10:13:12;7.88;;;5.30;;
84999;SDS011;75320;51.608;7.952;2024-01-30T10:15:39;8.50;;;7.07;;
84999;SDS011;75320;51.608;7.952;2024-01-30T10:18:06;10.93;;;6.75;;
84999;SDS011;75320;51.608;7.952;2024-01-30T10:20:32;9.32;;;4.70;;
84999;SDS011;75320;51.608;7.952;2024-01-30T10:22:58;8.88;;;4.93;;
84999;SDS011;75320;51.608;7.952;2024-01-30T10:25:25;9.75;;;6.60;;
84999;SDS011;75320;51.608;7.952;2024-01-30T10:27:54;11.57;;;5.57;;
84999;SDS011;75320;51.608;7.952;2024-01-30T10:30:23;9.77;;;5.45;;
84999;SDS011;75320;51.608;7.952;2024-01-30T10:32:50;9.48;;;5.10;;
84999;SDS011;75320;51.608;7.952;2024-01-30T10:35:16;7.38;;;5.35;;
84999;SDS011;75320;51.608;7.952;2024-01-30T10:37:46;8.88;;;4.53;;
84999;SDS011;75320;51.608;7.952;2024-01-30T10:40:13;9.43;;;4.90;;
84999;SDS011;75320;51.608;7.952;2024-01-30T10:42:42;10.40;;;5.82;;
84999;SDS011;75320;51.608;7.952;2024-01-30T10:45:09;15.25;;;9.52;;
84999;SDS011;75320;51.608;7.952;2024-01-30T10:47:41;13.88;;;5.07;;
84999;SDS011;75320;51.608;7.952;2024-01-30T10:50:13;8.85;;;5.97;;
84999;SDS011;75320;51.608;7.952;2024-01-30T10:52:39;10.20;;;6.75;;
84999;SDS011;75320;51.608;7.952;2024-01-30T10:55:07;9.10;;;5.50;;
84999;SDS011;75320;51.608;7.952;2024-01-30T10:57:36;10.65;;;5.30;;
84999;SDS011;75320;51.608;7.952;2024-01-30T11:00:03;11.77;;;4.88;;
84999;SDS011;75320;51.608;7.952;2024-01-30T11:02:35;9.82;;;6.43;;
84999;SDS011;75320;51.608;7.952;2024-01-30T11:05:13;8.02;;;4.97;;
84999;SDS011;75320;51.608;7.952;2024-01-30T11:07:41;7.40;;;4.20;;
84999;SDS011;75320;51.608;7.952;2024-01-30T11:10:06;8.30;;;5.90;;
84999;SDS011;75320;51.608;7.952;2024-01-30T11:12:38;10.02;;;6.07;;
84999;SDS011;75320;51.608;7.952;2024-01-30T11:15:09;10.05;;;5.53;;
84999;SDS011;75320;51.608;7.952;2024-01-30T11:20:30;9.85;;;6.15;;
84999;SDS011;75320;51.608;7.952;2024-01-30T11:22:56;10.52;;;5.75;;
84999;SDS011;75320;51.608;7.952;2024-01-30T11:25:23;10.70;;;4.38;;
84999;SDS011;75320;51.608;7.952;2024-01-30T11:27:50;10.25;;;6.05;;
84999;SDS011;75320;51.608;7.952;2024-01-30T11:30:29;9.82;;;5.85;;
84999;SDS011;75320;51.608;7.952;2024-01-30T11:33:03;8.52;;;5.85;;
84999;SDS011;75320;51.608;7.952;2024-01-30T11:35:40;9.75;;;4.57;;
84999;SDS011;75320;51.608;7.952;2024-01-30T11:38:08;8.40;;;5.82;;
84999;SDS011;75320;51.608;7.952;2024-01-30T11:40:37;10.07;;;5.78;;
84999;SDS011;75320;51.608;7.952;2024-01-30T11:43:04;9.02;;;5.93;;
84999;SDS011;75320;51.608;7.952;2024-01-30T11:45:31;10.07;;;5.50;;
84999;SDS011;75320;51.608;7.952;2024-01-30T11:47:57;9.55;;;6.05;;
84999;SDS011;75320;51.608;7.952;2024-01-30T11:50:28;8.13;;;5.35;;
84999;SDS011;75320;51.608;7.952;2024-01-30T11:52:54;8.43;;;5.97;;
84999;SDS011;75320;51.608;7.952;2024-01-30T11:55:20;9.57;;;6.25;;
84999;SDS011;75320;51.608;7.952;2024-01-30T11:57:45;11.48;;;4.53;;
84999;SDS011;75320;51.608;7.952;2024-01-30T12:00:17;7.40;;;5.07;;
84999;SDS011;75320;51.608;7.952;2024-01-30T12:02:49;10.98;;;4.80;;
84999;SDS011;75320;51.608;7.952;2024-01-30T12:05:15;8.98;;;5.50;;
84999;SDS011;75320;51.608;7.952;2024-01-30T12:07:43;8.40;;;4.40;;
84999;SDS011;75320;51.608;7.952;2024-01-30T12:10:09;7.80;;;4.13;;
84999;SDS011;75320;51.608;7.952;2024-01-30T12:12:34;11.18;;;5.15;;
84999;SDS011;75320;51.608;7.952;2024-01-30T12:15:00;10.68;;;5.50;;
84999;SDS011;75320;51.608;7.952;2024-01-30T12:17:32;9.93;;;3.75;;
84999;SDS011;75320;51.608;7.952;2024-01-30T12:20:18;8.13;;;5.47;;
84999;SDS011;75320;51.608;7.952;2024-01-30T12:22:46;8.50;;;4.50;;
84999;SDS011;75320;51.608;7.952;2024-01-30T12:25:14;9.07;;;6.03;;
84999;SDS011;75320;51.608;7.952;2024-01-30T12:27:42;10.88;;;4.60;;
84999;SDS011;75320;51.608;7.952;2024-01-30T12:30:12;11.30;;;6.13;;
84999;SDS011;75320;51.608;7.952;2024-01-30T12:32:39;8.52;;;5.25;;
84999;SDS011;75320;51.608;7.952;2024-01-30T12:35:10;11.10;;;4.90;;
84999;SDS011;75320;51.608;7.952;2024-01-30T12:37:36;9.02;;;4.38;;
84999;SDS011;75320;51.608;7.952;2024-01-30T12:40:02;11.40;;;5.22;;
84999;SDS011;75320;51.608;7.952;2024-01-30T12:42:28;9.95;;;4.28;;
84999;SDS011;75320;51.608;7.952;2024-01-30T12:44:56;11.05;;;5.78;;
84999;SDS011;75320;51.608;7.952;2024-01-30T12:47:23;10.05;;;4.90;;
84999;SDS011;75320;51.608;7.952;2024-01-30T12:49:49;9.95;;;3.92;;
84999;SDS011;75320;51.608;7.952;2024-01-30T12:52:18;9.75;;;6.78;;
84999;SDS011;75320;51.608;7.952;2024-01-30T12:54:44;11.88;;;5.82;;
84999;SDS011;75320;51.608;7.952;2024-01-30T12:57:10;7.95;;;5.20;;
84999;SDS011;75320;51.608;7.952;2024-01-30T12:59:35;14.43;;;4.50;;
84999;SDS011;75320;51.608;7.952;2024-01-30T13:02:00;9.90;;;4.25;;
84999;SDS011;75320;51.608;7.952;2024-01-30T13:04:27;11.65;;;6.90;;
84999;SDS011;75320;51.608;7.952;2024-01-30T13:06:52;8.88;;;5.75;;
84999;SDS011;75320;51.608;7.952;2024-01-30T13:09:21;11.60;;;5.38;;
84999;SDS011;75320;51.608;7.952;2024-01-30T13:11:46;11.70;;;4.90;;
84999;SDS011;75320;51.608;7.952;2024-01-30T13:14:13;11.00;;;6.30;;
84999;SDS011;75320;51.608;7.952;2024-01-30T13:16:40;11.67;;;6.67;;
84999;SDS011;75320;51.608;7.952;2024-01-30T13:19:07;9.27;;;6.25;;
84999;SDS011;75320;51.608;7.952;2024-01-30T13:21:32;11.30;;;4.80;;
84999;SDS011;75320;51.608;7.952;2024-01-30T13:23:57;12.70;;;6.10;;
84999;SDS011;75320;51.608;7.952;2024-01-30T13:26:23;14.33;;;6.87;;
84999;SDS011;75320;51.608;7.952;2024-01-30T13:28:48;13.52;;;6.30;;
84999;SDS011;75320;51.608;7.952;2024-01-30T13:31:14;11.13;;;5.93;;
84999;SDS011;75320;51.608;7.952;2024-01-30T13:36:07;15.98;;;6.20;;
84999;SDS011;75320;51.608;7.952;2024-01-30T13:38:35;11.65;;;4.93;;
84999;SDS011;75320;51.608;7.952;2024-01-30T13:41:01;10.07;;;4.90;;
84999;SDS011;75320;51.608;7.952;2024-01-30T13:43:27;9.95;;;4.85;;
84999;SDS011;75320;51.608;7.952;2024-01-30T13:45:53;11.18;;;6.57;;
84999;SDS011;75320;51.608;7.952;2024-01-30T13:48:19;11.35;;;5.47;;
84999;SDS011;75320;51.608;7.952;2024-01-30T13:50:44;12.38;;;6.15;;
84999;SDS011;75320;51.608;7.952;2024-01-30T13:53:11;13.13;;;4.20;;
84999;SDS011;75320;51.608;7.952;2024-01-30T13:55:36;14.60;;;6.18;;
84999;SDS011;75320;51.608;7.952;2024-01-30T13:58:03;11.25;;;6.68;;
84999;SDS011;75320;51.608;7.952;2024-01-30T14:00:28;11.18;;;4.88;;
84999;SDS011;75320;51.608;7.952;2024-01-30T14:02:55;10.20;;;4.65;;
84999;SDS011;75320;51.608;7.952;2024-01-30T14:05:22;13.00;;;5.85;;
84999;SDS011;75320;51.608;7.952;2024-01-30T14:07:47;9.80;;;6.10;;
84999;SDS011;75320;51.608;7.952;2024-01-30T14:10:13;11.93;;;5.63;;
84999;SDS011;75320;51.608;7.952;2024-01-30T14:12:39;11.85;;;5.75;;
84999;SDS011;75320;51.608;7.952;2024-01-30T14:15:04;10.38;;;5.60;;
84999;SDS011;75320;51.608;7.952;2024-01-30T14:17:30;11.45;;;4.90;;
84999;SDS011;75320;51.608;7.952;2024-01-30T14:19:56;13.57;;;6.30;;
84999;SDS011;75320;51.608;7.952;2024-01-30T14:22:22;10.43;;;4.93;;
84999;SDS011;75320;51.608;7.952;2024-01-30T14:24:47;12.90;;;5.73;;
84999;SDS011;75320;51.608;7.952;2024-01-30T14:27:14;13.57;;;5.70;;
84999;SDS011;75320;51.608;7.952;2024-01-30T14:29:39;10.43;;;5.60;;
84999;SDS011;75320;51.608;7.952;2024-01-30T14:32:06;10.93;;;7.40;;
84999;SDS011;75320;51.608;7.952;2024-01-30T14:34:32;10.93;;;5.47;;
84999;SDS011;75320;51.608;7.952;2024-01-30T14:36:58;13.40;;;5.95;;
84999;SDS011;75320;51.608;7.952;2024-01-30T14:39:25;11.05;;;6.28;;
84999;SDS011;75320;51.608;7.952;2024-01-30T14:41:50;9.98;;;5.55;;
84999;SDS011;75320;51.608;7.952;2024-01-30T14:44:15;10.95;;;6.78;;
84999;SDS011;75320;51.608;7.952;2024-01-30T14:46:41;12.97;;;7.10;;
84999;SDS011;75320;51.608;7.952;2024-01-30T14:49:07;11.63;;;7.00;;
84999;SDS011;75320;51.608;7.952;2024-01-30T14:51:34;13.23;;;8.20;;
84999;SDS011;75320;51.608;7.952;2024-01-30T14:54:02;12.30;;;5.93;;